Aviation Digital Data Service (ADDS)

Output produced by METARs form (0651 UTC 25 July 2017)
found at http://aviationweather.gov/adds/metars/
 
KAND 250539Z 2506/2606 VRB03KT P6SM BKN250 
     FM252100 21004KT P6SM BKN050 
     FM260300 VRB02KT P6SM SCT050